Terminal Aerodrome Forecast
Issued by NWS Salt Lake City, UT

Current Version | Previous Version | Text Only | Print | Product List | Glossary On
Versions: 1 2 3 4 5 6 7 8 9 10 11 12 13 14 15 16 17 18 19 20 21 22 23 24 25
000
FTUS45 KSLC 300528
TAFSLC
TAF
KSLC 300528Z 3006/3112 15003KT P6SM SKC
     FM300700 15007KT P6SM SKC
     FM301900 33008KT P6SM FEW090
     FM310400 15007KT P6SM SCT090=

USA.gov is the U.S. government's official web portal to all federal, state and local government web resources and services.